sensor_id;sensor_type;location;lat;lon;timestamp;pressure;altitude;pressure_sealevel;temperature;humidity
68986;BME280;56035;37.534;-122.308;2023-02-05T00:01:20;101250.44;;;14.78;100.00
68986;BME280;56035;37.534;-122.308;2023-02-05T00:03:46;101246.81;;;14.78;100.00
68986;BME280;56035;37.534;-122.308;2023-02-05T00:06:12;101244.03;;;14.78;100.00
68986;BME280;56035;37.534;-122.308;2023-02-05T00:08:38;101240.19;;;14.79;100.00
68986;BME280;56035;37.534;-122.308;2023-02-05T00:11:05;101240.19;;;14.79;100.00
68986;BME280;56035;37.534;-122.308;2023-02-05T00:13:39;101247.41;;;14.80;100.00
68986;BME280;56035;37.534;-122.308;2023-02-05T00:16:10;101247.41;;;14.80;100.00
68986;BME280;56035;37.534;-122.308;2023-02-05T00:18:37;101238.81;;;14.81;100.00
68986;BME280;56035;37.534;-122.308;2023-02-05T00:21:07;101233.25;;;14.81;100.00
68986;BME280;56035;37.534;-122.308;2023-02-05T00:23:34;101240.50;;;14.82;100.00
68986;BME280;56035;37.534;-122.308;2023-02-05T00:26:00;101229.41;;;14.82;100.00
68986;BME280;56035;37.534;-122.308;2023-02-05T00:28:27;101234.94;;;14.82;100.00
68986;BME280;56035;37.534;-122.308;2023-02-05T00:30:53;101245.22;;;14.82;100.00
68986;BME280;56035;37.534;-122.308;2023-02-05T00:33:19;101232.75;;;14.84;100.00
68986;BME280;56035;37.534;-122.308;2023-02-05T00:35:46;101220.81;;;14.84;100.00
68986;BME280;56035;37.534;-122.308;2023-02-05T00:38:12;101222.50;;;14.85;100.00
68986;BME280;56035;37.534;-122.308;2023-02-05T00:40:39;101233.84;;;14.83;100.00
68986;BME280;56035;37.534;-122.308;2023-02-05T00:43:05;101236.63;;;14.83;100.00
68986;BME280;56035;37.534;-122.308;2023-02-05T00:45:31;101226.34;;;14.84;100.00
68986;BME280;56035;37.534;-122.308;2023-02-05T00:48:06;101205.00;;;14.84;100.00
68986;BME280;56035;37.534;-122.308;2023-02-05T00:50:33;101218.03;;;14.84;100.00
68986;BME280;56035;37.534;-122.308;2023-02-05T00:52:59;101228.06;;;14.85;100.00
68986;BME280;56035;37.534;-122.308;2023-02-05T00:55:26;101229.72;;;14.86;100.00
68986;BME280;56035;37.534;-122.308;2023-02-05T00:57:53;101234.44;;;14.85;100.00
68986;BME280;56035;37.534;-122.308;2023-02-05T01:00:19;101228.88;;;14.85;100.00
68986;BME280;56035;37.534;-122.308;2023-02-05T01:02:45;101228.88;;;14.85;100.00
68986;BME280;56035;37.534;-122.308;2023-02-05T01:05:12;101237.22;;;14.85;100.00
68986;BME280;56035;37.534;-122.308;2023-02-05T01:07:39;101244.69;;;14.85;100.00
68986;BME280;56035;37.534;-122.308;2023-02-05T01:10:06;101251.06;;;14.85;100.00
68986;BME280;56035;37.534;-122.308;2023-02-05T01:12:32;101233.00;;;14.83;100.00
68986;BME280;56035;37.534;-122.308;2023-02-05T01:15:03;101256.03;;;14.83;100.00
68986;BME280;56035;37.534;-122.308;2023-02-05T01:17:29;101246.03;;;14.82;100.00
68986;BME280;56035;37.534;-122.308;2023-02-05T01:19:55;101245.22;;;14.82;100.00
68986;BME280;56035;37.534;-122.308;2023-02-05T01:22:22;101246.88;;;14.83;100.00
68986;BME280;56035;37.534;-122.308;2023-02-05T01:24:48;101255.19;;;14.83;100.00
68986;BME280;56035;37.534;-122.308;2023-02-05T01:27:15;101251.59;;;14.82;100.00
68986;BME280;56035;37.534;-122.308;2023-02-05T01:29:41;101257.97;;;14.83;100.00
68986;BME280;56035;37.534;-122.308;2023-02-05T01:32:07;101257.97;;;14.83;100.00
68986;BME280;56035;37.534;-122.308;2023-02-05T01:34:33;101255.19;;;14.83;100.00
68986;BME280;56035;37.534;-122.308;2023-02-05T01:37:00;101251.59;;;14.82;100.00
68986;BME280;56035;37.534;-122.308;2023-02-05T01:39:26;101277.63;;;14.81;100.00
68986;BME280;56035;37.534;-122.308;2023-02-05T01:41:52;101277.63;;;14.81;100.00
68986;BME280;56035;37.534;-122.308;2023-02-05T01:44:21;101272.94;;;14.82;100.00
68986;BME280;56035;37.534;-122.308;2023-02-05T01:46:51;101290.66;;;14.81;100.00
68986;BME280;56035;37.534;-122.308;2023-02-05T01:49:27;101279.56;;;14.81;100.00
68986;BME280;56035;37.534;-122.308;2023-02-05T01:51:55;101284.56;;;14.79;100.00
68986;BME280;56035;37.534;-122.308;2023-02-05T01:54:24;101281.19;;;14.77;100.00
68986;BME280;56035;37.534;-122.308;2023-02-05T01:56:56;101281.19;;;14.77;100.00
68986;BME280;56035;37.534;-122.308;2023-02-05T01:59:29;101294.81;;;14.78;100.00
68986;BME280;56035;37.534;-122.308;2023-02-05T02:01:58;101282.84;;;14.78;100.00
68986;BME280;56035;37.534;-122.308;2023-02-05T02:04:54;101290.63;;;14.75;100.00
68986;BME280;56035;37.534;-122.308;2023-02-05T02:07:23;101297.00;;;14.76;100.00
68986;BME280;56035;37.534;-122.308;2023-02-05T02:09:51;101280.34;;;14.76;100.00
68986;BME280;56035;37.534;-122.308;2023-02-05T02:12:23;101277.59;;;14.76;100.00
68986;BME280;56035;37.534;-122.308;2023-02-05T02:14:55;101273.13;;;14.75;100.00
68986;BME280;56035;37.534;-122.308;2023-02-05T02:17:25;101285.06;;;14.75;100.00
68986;BME280;56035;37.534;-122.308;2023-02-05T02:30:46;101298.63;;;14.72;100.00
68986;BME280;56035;37.534;-122.308;2023-02-05T02:38:45;101309.94;;;14.70;100.00
68986;BME280;56035;37.534;-122.308;2023-02-05T02:41:30;101326.59;;;14.70;100.00
68986;BME280;56035;37.534;-122.308;2023-02-05T02:44:10;101322.97;;;14.70;100.00
68986;BME280;56035;37.534;-122.308;2023-02-05T02:46:49;101323.25;;;14.68;100.00
68986;BME280;56035;37.534;-122.308;2023-02-05T02:49:22;101316.00;;;14.67;100.00
68986;BME280;56035;37.534;-122.308;2023-02-05T02:51:51;101310.47;;;14.67;100.00
68986;BME280;56035;37.534;-122.308;2023-02-05T02:54:20;101317.72;;;14.68;100.00
68986;BME280;56035;37.534;-122.308;2023-02-05T02:56:48;101326.84;;;14.69;100.00
68986;BME280;56035;37.534;-122.308;2023-02-05T02:59:23;101325.44;;;14.66;100.00
68986;BME280;56035;37.534;-122.308;2023-02-05T03:01:57;101332.63;;;14.67;100.00
68986;BME280;56035;37.534;-122.308;2023-02-05T03:04:38;101340.13;;;14.67;100.00
68986;BME280;56035;37.534;-122.308;2023-02-05T03:07:13;101337.34;;;14.67;100.00
68986;BME280;56035;37.534;-122.308;2023-02-05T03:12:24;101342.31;;;14.65;100.00
68986;BME280;56035;37.534;-122.308;2023-02-05T03:14:51;101348.72;;;14.65;100.00
68986;BME280;56035;37.534;-122.308;2023-02-05T03:17:19;101352.56;;;14.64;100.00
68986;BME280;56035;37.534;-122.308;2023-02-05T03:19:49;101352.31;;;14.66;100.00
68986;BME280;56035;37.534;-122.308;2023-02-05T03:22:18;101361.72;;;14.65;100.00
68986;BME280;56035;37.534;-122.308;2023-02-05T03:24:44;101317.34;;;14.65;100.00
68986;BME280;56035;37.534;-122.308;2023-02-05T03:27:10;101322.06;;;14.64;100.00
68986;BME280;56035;37.534;-122.308;2023-02-05T03:29:38;101320.38;;;14.63;100.00
68986;BME280;56035;37.534;-122.308;2023-02-05T03:32:14;101327.59;;;14.64;100.00
68986;BME280;56035;37.534;-122.308;2023-02-05T03:34:54;101330.38;;;14.64;100.00
68986;BME280;56035;37.534;-122.308;2023-02-05T03:40:24;101325.09;;;14.63;100.00
68986;BME280;56035;37.534;-122.308;2023-02-05T03:43:12;101337.31;;;14.62;100.00
68986;BME280;56035;37.534;-122.308;2023-02-05T03:45:53;101340.91;;;14.62;100.00
68986;BME280;56035;37.534;-122.308;2023-02-05T03:54:19;101368.03;;;14.60;100.00
68986;BME280;56035;37.534;-122.308;2023-02-05T03:57:03;101347.78;;;14.60;100.00
68986;BME280;56035;37.534;-122.308;2023-02-05T03:59:32;101342.50;;;14.58;100.00
68986;BME280;56035;37.534;-122.308;2023-02-05T04:01:59;101348.03;;;14.58;100.00
68986;BME280;56035;37.534;-122.308;2023-02-05T04:04:30;101342.25;;;14.60;100.00
68986;BME280;56035;37.534;-122.308;2023-02-05T04:06:55;101361.91;;;14.58;100.00
68986;BME280;56035;37.534;-122.308;2023-02-05T04:09:22;101362.16;;;14.57;100.00
68986;BME280;56035;37.534;-122.308;2023-02-05T04:11:48;101370.75;;;14.55;100.00
68986;BME280;56035;37.534;-122.308;2023-02-05T04:14:14;101372.41;;;14.56;100.00
68986;BME280;56035;37.534;-122.308;2023-02-05T04:16:41;101379.06;;;14.55;100.00
68986;BME280;56035;37.534;-122.308;2023-02-05T04:19:07;101388.22;;;14.56;100.00
68986;BME280;56035;37.534;-122.308;2023-02-05T04:21:33;101391.81;;;14.56;100.00
68986;BME280;56035;37.534;-122.308;2023-02-05T04:23:59;101384.63;;;14.55;100.00
68986;BME280;56035;37.534;-122.308;2023-02-05T04:26:25;101405.69;;;14.56;100.00
68986;BME280;56035;37.534;-122.308;2023-02-05T04:28:52;101406.78;;;14.55;100.00
68986;BME280;56035;37.534;-122.308;2023-02-05T04:31:18;101417.03;;;14.55;100.00
68986;BME280;56035;37.534;-122.308;2023-02-05T04:33:44;101423.44;;;14.55;100.00
68986;BME280;56035;37.534;-122.308;2023-02-05T04:36:10;101399.31;;;14.56;100.00
68986;BME280;56035;37.534;-122.308;2023-02-05T04:38:37;101435.34;;;14.56;100.00
68986;BME280;56035;37.534;-122.308;2023-02-05T04:41:03;101432.81;;;14.54;100.00
68986;BME280;56035;37.534;-122.308;2023-02-05T04:43:29;101421.72;;;14.54;100.00
68986;BME280;56035;37.534;-122.308;2023-02-05T04:45:56;101425.59;;;14.53;100.00
68986;BME280;56035;37.534;-122.308;2023-02-05T04:48:22;101427.53;;;14.52;100.00
68986;BME280;56035;37.534;-122.308;2023-02-05T04:50:48;101442.25;;;14.53;100.00
68986;BME280;56035;37.534;-122.308;2023-02-05T04:53:14;101439.69;;;14.51;100.00
68986;BME280;56035;37.534;-122.308;2023-02-05T04:55:41;101453.56;;;14.51;100.00
68986;BME280;56035;37.534;-122.308;2023-02-05T04:58:07;101451.03;;;14.50;100.00
68986;BME280;56035;37.534;-122.308;2023-02-05T05:00:33;101465.75;;;14.50;100.00
68986;BME280;56035;37.534;-122.308;2023-02-05T05:02:59;101476.84;;;14.50;100.00
68986;BME280;56035;37.534;-122.308;2023-02-05T05:05:26;101490.72;;;14.50;100.00
68986;BME280;56035;37.534;-122.308;2023-02-05T05:07:52;101479.84;;;14.49;100.00
68986;BME280;56035;37.534;-122.308;2023-02-05T05:10:19;101496.50;;;14.49;100.00
68986;BME280;56035;37.534;-122.308;2023-02-05T05:12:45;101506.72;;;14.48;100.00
68986;BME280;56035;37.534;-122.308;2023-02-05T05:15:11;101505.88;;;14.48;100.00
68986;BME280;56035;37.534;-122.308;2023-02-05T05:17:37;101511.41;;;14.48;100.00
68986;BME280;56035;37.534;-122.308;2023-02-05T05:20:04;101507.25;;;14.45;100.00
68986;BME280;56035;37.534;-122.308;2023-02-05T05:22:30;101514.69;;;14.45;100.00
68986;BME280;56035;37.534;-122.308;2023-02-05T05:24:56;101507.47;;;14.44;100.00
68986;BME280;56035;37.534;-122.308;2023-02-05T05:27:23;101502.75;;;14.44;100.00
68986;BME280;56035;37.534;-122.308;2023-02-05T05:29:49;101521.34;;;14.44;100.00
68986;BME280;56035;37.534;-122.308;2023-02-05T05:32:15;101527.13;;;14.42;100.00
68986;BME280;56035;37.534;-122.308;2023-02-05T05:34:42;101533.75;;;14.41;100.00
68986;BME280;56035;37.534;-122.308;2023-02-05T05:37:08;101539.28;;;14.41;100.00
68986;BME280;56035;37.534;-122.308;2023-02-05T05:39:34;101526.28;;;14.42;100.00
68986;BME280;56035;37.534;-122.308;2023-02-05T05:42:19;101531.25;;;14.40;100.00
68986;BME280;56035;37.534;-122.308;2023-02-05T05:45:04;101539.56;;;14.40;100.00
68986;BME280;56035;37.534;-122.308;2023-02-05T05:47:30;101542.56;;;14.38;100.00
68986;BME280;56035;37.534;-122.308;2023-02-05T05:49:56;101548.38;;;14.37;100.00
68986;BME280;56035;37.534;-122.308;2023-02-05T05:52:23;101548.38;;;14.37;100.00
68986;BME280;56035;37.534;-122.308;2023-02-05T05:54:49;101542.00;;;14.36;100.00
68986;BME280;56035;37.534;-122.308;2023-02-05T05:57:15;101556.91;;;14.35;100.00
68986;BME280;56035;37.534;-122.308;2023-02-05T05:59:41;101566.09;;;14.36;100.00
68986;BME280;56035;37.534;-122.308;2023-02-05T06:02:07;101555.25;;;14.34;100.00
68986;BME280;56035;37.534;-122.308;2023-02-05T06:04:34;101565.50;;;14.34;100.00
68986;BME280;56035;37.534;-122.308;2023-02-05T06:07:00;101569.38;;;14.33;100.00
68986;BME280;56035;37.534;-122.308;2023-02-05T06:09:27;101576.81;;;14.32;100.00
68986;BME280;56035;37.534;-122.308;2023-02-05T06:11:53;101579.59;;;14.32;100.00
68986;BME280;56035;37.534;-122.308;2023-02-05T06:14:19;101593.44;;;14.32;100.00
68986;BME280;56035;37.534;-122.308;2023-02-05T06:16:45;101578.75;;;14.32;100.00
68986;BME280;56035;37.534;-122.308;2023-02-05T06:19:12;101582.63;;;14.31;100.00
68986;BME280;56035;37.534;-122.308;2023-02-05T06:21:38;101593.72;;;14.31;100.00
68986;BME280;56035;37.534;-122.308;2023-02-05T06:24:04;101604.78;;;14.31;100.00
68986;BME280;56035;37.534;-122.308;2023-02-05T06:26:31;101603.13;;;14.29;100.00
68986;BME280;56035;37.534;-122.308;2023-02-05T06:28:57;101610.81;;;14.27;100.00
68986;BME280;56035;37.534;-122.308;2023-02-05T06:31:29;101615.28;;;14.28;100.00
68986;BME280;56035;37.534;-122.308;2023-02-05T06:33:55;101614.69;;;14.26;100.00
68986;BME280;56035;37.534;-122.308;2023-02-05T06:36:21;101614.69;;;14.26;100.00
68986;BME280;56035;37.534;-122.308;2023-02-05T06:38:48;101615.75;;;14.25;100.00
68986;BME280;56035;37.534;-122.308;2023-02-05T06:41:14;101616.63;;;14.26;100.00
68986;BME280;56035;37.534;-122.308;2023-02-05T06:43:40;101622.19;;;14.26;100.00
68986;BME280;56035;37.534;-122.308;2023-02-05T06:46:06;101635.16;;;14.25;100.00
68986;BME280;56035;37.534;-122.308;2023-02-05T06:48:32;101625.19;;;14.24;100.00
68986;BME280;56035;37.534;-122.308;2023-02-05T06:50:59;101630.72;;;14.24;100.00
68986;BME280;56035;37.534;-122.308;2023-02-05T06:53:25;101637.34;;;14.23;100.00
68986;BME280;56035;37.534;-122.308;2023-02-05T06:55:51;101637.34;;;14.23;100.00
68986;BME280;56035;37.534;-122.308;2023-02-05T06:58:17;101653.16;;;14.23;100.00
68986;BME280;56035;37.534;-122.308;2023-02-05T07:00:44;101655.09;;;14.22;100.00
68986;BME280;56035;37.534;-122.308;2023-02-05T07:03:10;101653.38;;;14.21;100.00
68986;BME280;56035;37.534;-122.308;2023-02-05T07:05:36;101656.16;;;14.21;100.00
68986;BME280;56035;37.534;-122.308;2023-02-05T07:08:02;101658.91;;;14.21;100.00
68986;BME280;56035;37.534;-122.308;2023-02-05T07:10:31;101659.19;;;14.20;100.00
68986;BME280;56035;37.534;-122.308;2023-02-05T07:12:57;101674.72;;;14.21;100.00
68986;BME280;56035;37.534;-122.308;2023-02-05T07:15:24;101673.03;;;14.20;100.00
68986;BME280;56035;37.534;-122.308;2023-02-05T07:17:50;101682.19;;;14.20;100.00
68986;BME280;56035;37.534;-122.308;2023-02-05T07:20:16;101685.19;;;14.19;100.00
68986;BME280;56035;37.534;-122.308;2023-02-05T07:22:43;101687.13;;;14.18;100.00
68986;BME280;56035;37.534;-122.308;2023-02-05T07:25:09;101695.91;;;14.15;100.00
68986;BME280;56035;37.534;-122.308;2023-02-05T07:27:35;101692.09;;;14.16;100.00
68986;BME280;56035;37.534;-122.308;2023-02-05T07:30:02;101700.63;;;14.15;100.00
68986;BME280;56035;37.534;-122.308;2023-02-05T07:32:28;101701.47;;;14.15;100.00
68986;BME280;56035;37.534;-122.308;2023-02-05T07:34:54;101702.56;;;14.14;100.00
68986;BME280;56035;37.534;-122.308;2023-02-05T07:37:20;101703.16;;;14.16;100.00
68986;BME280;56035;37.534;-122.308;2023-02-05T07:39:46;101710.88;;;14.14;100.00
68986;BME280;56035;37.534;-122.308;2023-02-05T07:42:13;101710.88;;;14.14;100.00
68986;BME280;56035;37.534;-122.308;2023-02-05T07:44:39;101718.09;;;14.15;100.00
68986;BME280;56035;37.534;-122.308;2023-02-05T07:47:05;101719.19;;;14.14;100.00
68986;BME280;56035;37.534;-122.308;2023-02-05T07:49:31;101718.09;;;14.15;100.00
68986;BME280;56035;37.534;-122.308;2023-02-05T07:51:58;101716.41;;;14.14;100.00
68986;BME280;56035;37.534;-122.308;2023-02-05T07:54:24;101723.06;;;14.13;100.00
68986;BME280;56035;37.534;-122.308;2023-02-05T07:56:50;101724.72;;;14.14;100.00
68986;BME280;56035;37.534;-122.308;2023-02-05T07:59:16;101713.91;;;14.13;100.00
68986;BME280;56035;37.534;-122.308;2023-02-05T08:01:43;101733.88;;;14.15;100.00
68986;BME280;56035;37.534;-122.308;2023-02-05T08:04:09;101730.53;;;14.13;100.00
68986;BME280;56035;37.534;-122.308;2023-02-05T08:06:35;101726.03;;;14.12;100.00
68986;BME280;56035;37.534;-122.308;2023-02-05T08:09:01;101734.97;;;14.14;100.00
68986;BME280;56035;37.534;-122.308;2023-02-05T08:11:28;101730.53;;;14.13;100.00
68986;BME280;56035;37.534;-122.308;2023-02-05T08:13:54;101735.19;;;14.12;99.85
68986;BME280;56035;37.534;-122.308;2023-02-05T08:16:20;101731.59;;;14.12;100.00
68986;BME280;56035;37.534;-122.308;2023-02-05T08:18:48;101728.81;;;14.12;100.00
68986;BME280;56035;37.534;-122.308;2023-02-05T08:21:16;101731.59;;;14.12;99.99
68986;BME280;56035;37.534;-122.308;2023-02-05T08:23:43;101745.44;;;14.12;99.83
68986;BME280;56035;37.534;-122.308;2023-02-05T08:26:09;101727.97;;;14.11;99.98
68986;BME280;56035;37.534;-122.308;2023-02-05T08:28:36;101733.78;;;14.10;99.77
68986;BME280;56035;37.534;-122.308;2023-02-05T08:31:09;101742.09;;;14.10;99.93
68986;BME280;56035;37.534;-122.308;2023-02-05T08:33:35;101735.44;;;14.11;99.79
68986;BME280;56035;37.534;-122.308;2023-02-05T08:36:01;101736.53;;;14.10;99.50
68986;BME280;56035;37.534;-122.308;2023-02-05T08:38:27;101740.38;;;14.09;99.92
68986;BME280;56035;37.534;-122.308;2023-02-05T08:40:54;101744.00;;;14.09;99.34
68986;BME280;56035;37.534;-122.308;2023-02-05T08:43:20;101731.22;;;14.08;99.23
68986;BME280;56035;37.534;-122.308;2023-02-05T08:45:46;101728.47;;;14.08;99.36
68986;BME280;56035;37.534;-122.308;2023-02-05T08:48:12;101727.63;;;14.08;99.30
68986;BME280;56035;37.534;-122.308;2023-02-05T08:50:39;101722.91;;;14.08;99.37
68986;BME280;56035;37.534;-122.308;2023-02-05T08:53:05;101725.94;;;14.07;99.27
68986;BME280;56035;37.534;-122.308;2023-02-05T08:55:32;101729.56;;;14.07;99.61
68986;BME280;56035;37.534;-122.308;2023-02-05T08:57:58;101729.56;;;14.07;99.24
68986;BME280;56035;37.534;-122.308;2023-02-05T09:00:24;101727.00;;;14.05;99.04
68986;BME280;56035;37.534;-122.308;2023-02-05T09:02:51;101727.88;;;14.06;99.25
68986;BME280;56035;37.534;-122.308;2023-02-05T09:05:17;101735.31;;;14.05;99.55
68986;BME280;56035;37.534;-122.308;2023-02-05T09:07:43;101732.56;;;14.05;99.60
68986;BME280;56035;37.534;-122.308;2023-02-05T09:10:11;101725.09;;;14.06;98.83
68986;BME280;56035;37.534;-122.308;2023-02-05T09:12:38;101743.63;;;14.05;98.99
68986;BME280;56035;37.534;-122.308;2023-02-05T09:15:06;101742.78;;;14.05;98.86
68986;BME280;56035;37.534;-122.308;2023-02-05T09:17:32;101748.34;;;14.05;98.78
68986;BME280;56035;37.534;-122.308;2023-02-05T09:19:58;101754.97;;;14.04;98.72
68986;BME280;56035;37.534;-122.308;2023-02-05T09:22:25;101753.88;;;14.05;99.12
68986;BME280;56035;37.534;-122.308;2023-02-05T09:24:51;101760.50;;;14.04;99.21
68986;BME280;56035;37.534;-122.308;2023-02-05T09:27:17;101756.06;;;14.03;98.98
68986;BME280;56035;37.534;-122.308;2023-02-05T09:29:43;101770.75;;;14.03;98.87
68986;BME280;56035;37.534;-122.308;2023-02-05T09:32:10;101767.16;;;14.03;98.64
68986;BME280;56035;37.534;-122.308;2023-02-05T09:34:36;101775.47;;;14.03;98.47
68986;BME280;56035;37.534;-122.308;2023-02-05T09:37:02;101773.75;;;14.02;98.31
68986;BME280;56035;37.534;-122.308;2023-02-05T09:39:29;101779.28;;;14.02;98.52
68986;BME280;56035;37.534;-122.308;2023-02-05T09:47:51;101789.53;;;14.01;98.79
68986;BME280;56035;37.534;-122.308;2023-02-05T09:50:24;101784.00;;;14.01;98.31
68986;BME280;56035;37.534;-122.308;2023-02-05T09:53:00;101792.56;;;14.00;98.22
68986;BME280;56035;37.534;-122.308;2023-02-05T09:55:34;101792.56;;;14.00;98.45
68986;BME280;56035;37.534;-122.308;2023-02-05T09:58:05;101804.69;;;13.99;98.41
68986;BME280;56035;37.534;-122.308;2023-02-05T10:08:56;101809.66;;;13.97;98.65
68986;BME280;56035;37.534;-122.308;2023-02-05T10:18:25;101802.66;;;13.94;98.47
68986;BME280;56035;37.534;-122.308;2023-02-05T10:21:24;101802.88;;;13.93;98.26
68986;BME280;56035;37.534;-122.308;2023-02-05T10:29:45;101800.38;;;13.91;97.92
68986;BME280;56035;37.534;-122.308;2023-02-05T10:33:09;101811.44;;;13.91;98.20
68986;BME280;56035;37.534;-122.308;2023-02-05T10:37:57;101805.06;;;13.91;97.70
68986;BME280;56035;37.534;-122.308;2023-02-05T10:40:28;101802.53;;;13.89;98.00
68986;BME280;56035;37.534;-122.308;2023-02-05T10:45:54;101813.03;;;13.87;96.97
68986;BME280;56035;37.534;-122.308;2023-02-05T10:51:31;101821.56;;;13.86;97.40
68986;BME280;56035;37.534;-122.308;2023-02-05T10:53:59;101809.63;;;13.85;97.63
68986;BME280;56035;37.534;-122.308;2023-02-05T10:56:26;101816.84;;;13.86;97.36
68986;BME280;56035;37.534;-122.308;2023-02-05T10:58:55;101817.09;;;13.85;97.71
68986;BME280;56035;37.534;-122.308;2023-02-05T11:01:29;101809.63;;;13.85;97.36
68986;BME280;56035;37.534;-122.308;2023-02-05T11:03:58;101809.63;;;13.85;97.49
68986;BME280;56035;37.534;-122.308;2023-02-05T11:06:30;101814.34;;;13.85;97.28
68986;BME280;56035;37.534;-122.308;2023-02-05T11:08:57;101819.88;;;13.85;96.84
68986;BME280;56035;37.534;-122.308;2023-02-05T11:11:31;101822.66;;;13.85;97.22
68986;BME280;56035;37.534;-122.308;2023-02-05T11:14:05;101822.66;;;13.85;97.25
68986;BME280;56035;37.534;-122.308;2023-02-05T11:16:41;101815.44;;;13.84;96.95
68986;BME280;56035;37.534;-122.308;2023-02-05T11:19:26;101820.09;;;13.83;96.60
68986;BME280;56035;37.534;-122.308;2023-02-05T11:21:58;101824.78;;;13.82;96.64
68986;BME280;56035;37.534;-122.308;2023-02-05T11:24:36;101830.34;;;13.82;96.71
68986;BME280;56035;37.534;-122.308;2023-02-05T11:29:53;101818.41;;;13.82;96.76
68986;BME280;56035;37.534;-122.308;2023-02-05T11:35:29;101810.38;;;13.80;96.37
68986;BME280;56035;37.534;-122.308;2023-02-05T11:38:07;101817.84;;;13.80;96.32
68986;BME280;56035;37.534;-122.308;2023-02-05T11:40:34;101824.44;;;13.79;96.25
68986;BME280;56035;37.534;-122.308;2023-02-05T11:45:31;101818.31;;;13.77;96.30
68986;BME280;56035;37.534;-122.308;2023-02-05T11:48:05;101815.53;;;13.77;96.88
68986;BME280;56035;37.534;-122.308;2023-02-05T11:50:36;101820.19;;;13.76;96.58
68986;BME280;56035;37.534;-122.308;2023-02-05T11:53:14;101821.06;;;13.77;96.24
68986;BME280;56035;37.534;-122.308;2023-02-05T11:55:42;101822.97;;;13.76;96.16
68986;BME280;56035;37.534;-122.308;2023-02-05T11:58:21;101821.91;;;13.77;96.11
68986;BME280;56035;37.534;-122.308;2023-02-05T12:01:00;101817.44;;;13.76;96.22
68986;BME280;56035;37.534;-122.308;2023-02-05T12:03:32;101814.66;;;13.76;96.58
68986;BME280;56035;37.534;-122.308;2023-02-05T12:06:17;101824.91;;;13.76;96.41
68986;BME280;56035;37.534;-122.308;2023-02-05T12:08:52;101822.13;;;13.76;95.80
68986;BME280;56035;37.534;-122.308;2023-02-05T12:17:04;101837.91;;;13.75;96.03
68986;BME280;56035;37.534;-122.308;2023-02-05T12:26:12;101849.47;;;13.72;96.38
68986;BME280;56035;37.534;-122.308;2023-02-05T12:31:42;101852.22;;;13.72;96.22
68986;BME280;56035;37.534;-122.308;2023-02-05T12:34:23;101849.47;;;13.72;95.49
68986;BME280;56035;37.534;-122.308;2023-02-05T12:53:23;101891.00;;;13.72;95.14
68986;BME280;56035;37.534;-122.308;2023-02-05T12:58:45;101871.03;;;13.70;95.97
68986;BME280;56035;37.534;-122.308;2023-02-05T13:01:20;101895.94;;;13.70;95.35
68986;BME280;56035;37.534;-122.308;2023-02-05T13:03:52;101882.09;;;13.70;95.58
68986;BME280;56035;37.534;-122.308;2023-02-05T13:06:34;101883.78;;;13.71;95.39
68986;BME280;56035;37.534;-122.308;2023-02-05T13:12:11;101896.16;;;13.69;95.39
68986;BME280;56035;37.534;-122.308;2023-02-05T13:17:18;101907.25;;;13.69;95.65
68986;BME280;56035;37.534;-122.308;2023-02-05T13:19:56;101902.53;;;13.69;96.07
68986;BME280;56035;37.534;-122.308;2023-02-05T13:22:27;101911.94;;;13.68;95.33
68986;BME280;56035;37.534;-122.308;2023-02-05T13:25:19;101918.31;;;13.69;95.54
68986;BME280;56035;37.534;-122.308;2023-02-05T13:31:01;101931.53;;;13.67;95.68
68986;BME280;56035;37.534;-122.308;2023-02-05T13:33:29;101924.31;;;13.66;95.41
68986;BME280;56035;37.534;-122.308;2023-02-05T13:55:35;101940.94;;;13.66;95.03
68986;BME280;56035;37.534;-122.308;2023-02-05T13:58:09;101939.25;;;13.65;95.22
68986;BME280;56035;37.534;-122.308;2023-02-05T14:00:41;101943.97;;;13.64;94.68
68986;BME280;56035;37.534;-122.308;2023-02-05T14:03:28;101928.19;;;13.65;95.00
68986;BME280;56035;37.534;-122.308;2023-02-05T14:05:58;101939.25;;;13.65;94.76
68986;BME280;56035;37.534;-122.308;2023-02-05T14:08:26;101943.97;;;13.64;95.16
68986;BME280;56035;37.534;-122.308;2023-02-05T14:11:02;101951.44;;;13.64;94.77
68986;BME280;56035;37.534;-122.308;2023-02-05T14:13:31;101949.50;;;13.64;95.30
68986;BME280;56035;37.534;-122.308;2023-02-05T14:26:55;101949.72;;;13.63;94.84
68986;BME280;56035;37.534;-122.308;2023-02-05T14:35:02;102028.09;;;13.63;94.50
68986;BME280;56035;37.534;-122.308;2023-02-05T14:37:33;102019.78;;;13.63;94.70
68986;BME280;56035;37.534;-122.308;2023-02-05T14:42:46;102016.41;;;13.61;94.40
68986;BME280;56035;37.534;-122.308;2023-02-05T14:45:15;102011.94;;;13.60;94.50
68986;BME280;56035;37.534;-122.308;2023-02-05T14:47:42;102005.34;;;13.61;94.09
68986;BME280;56035;37.534;-122.308;2023-02-05T14:50:19;102016.41;;;13.61;94.58
68986;BME280;56035;37.534;-122.308;2023-02-05T14:52:49;102018.56;;;13.59;94.41
68986;BME280;56035;37.534;-122.308;2023-02-05T14:55:23;102031.56;;;13.58;93.99
68986;BME280;56035;37.534;-122.308;2023-02-05T14:57:53;102036.00;;;13.59;94.46
68986;BME280;56035;37.534;-122.308;2023-02-05T15:08:28;102039.25;;;13.56;94.59